createdAt,value
2023-01-02T00:01:05.349Z,9.07
2023-01-02T00:03:32.364Z,10.57
2023-01-02T00:06:01.616Z,11.13
2023-01-02T00:08:28.126Z,10.63
2023-01-02T00:10:54.667Z,10.50
2023-01-02T00:13:21.244Z,11.57
2023-01-02T00:15:47.880Z,11.40
2023-01-02T00:18:14.411Z,10.93
2023-01-02T00:20:40.981Z,12.10
2023-01-02T00:23:07.578Z,11.70
2023-01-02T00:25:34.993Z,13.23
2023-01-02T00:28:01.673Z,23.37
2023-01-02T00:30:32.296Z,20.47
2023-01-02T00:33:02.447Z,17.27
2023-01-02T00:35:28.954Z,16.37
2023-01-02T00:37:55.633Z,15.80
2023-01-02T00:40:22.219Z,15.67
2023-01-02T00:42:48.908Z,17.03
2023-01-02T00:45:15.482Z,16.03
2023-01-02T00:47:42.054Z,17.30
2023-01-02T00:50:08.666Z,16.63
2023-01-02T00:52:35.235Z,16.43
2023-01-02T00:55:01.789Z,17.87
2023-01-02T00:57:28.355Z,16.43
2023-01-02T00:59:54.886Z,17.30
2023-01-02T01:02:21.545Z,18.77
2023-01-02T01:04:48.160Z,17.33
2023-01-02T01:07:15.138Z,15.73
2023-01-02T01:09:41.893Z,16.43
2023-01-02T01:12:08.470Z,15.90
2023-01-02T01:14:35.058Z,17.17
2023-01-02T01:17:01.643Z,17.60
2023-01-02T01:19:31.756Z,17.03
2023-01-02T01:21:58.287Z,16.97
2023-01-02T01:24:24.938Z,16.63
2023-01-02T01:26:51.433Z,17.37
2023-01-02T01:29:18.182Z,16.40
2023-01-02T01:31:44.743Z,16.87
2023-01-02T01:34:11.898Z,15.03
2023-01-02T01:36:38.423Z,16.30
2023-01-02T01:39:04.931Z,17.13
2023-01-02T01:41:31.512Z,16.63
2023-01-02T01:43:58.555Z,17.83
2023-01-02T01:46:32.209Z,15.73
2023-01-02T01:49:00.210Z,17.03
2023-01-02T01:51:26.986Z,16.30
2023-01-02T01:53:54.387Z,16.40
2023-01-02T01:56:20.989Z,17.67
2023-01-02T01:58:47.657Z,15.90
2023-01-02T02:01:14.742Z,18.33
2023-01-02T02:03:41.643Z,15.20
2023-01-02T02:06:08.210Z,14.93
2023-01-02T02:09:04.420Z,15.33
2023-01-02T02:11:30.958Z,14.17
2023-01-02T02:13:58.676Z,13.77
2023-01-02T02:16:48.594Z,13.03
2023-01-02T02:19:15.099Z,13.47
2023-01-02T02:22:00.593Z,13.67
2023-01-02T02:24:30.122Z,12.37
2023-01-02T02:27:01.440Z,12.57
2023-01-02T02:29:27.896Z,11.77
2023-01-02T02:31:54.432Z,13.93
2023-01-02T02:34:22.837Z,13.73
2023-01-02T02:37:02.051Z,13.47
2023-01-02T02:39:34.598Z,14.03
2023-01-02T02:42:18.567Z,14.73
2023-01-02T02:44:54.442Z,13.67
2023-01-02T02:47:22.599Z,13.50
2023-01-02T02:49:50.639Z,13.80
2023-01-02T02:52:21.337Z,13.43
2023-01-02T02:54:50.984Z,15.20
2023-01-02T02:57:17.515Z,12.80
2023-01-02T02:59:44.030Z,14.50
2023-01-02T03:02:13.963Z,13.47
2023-01-02T03:04:40.649Z,12.47
2023-01-02T03:07:22.501Z,14.40
2023-01-02T03:10:07.406Z,14.37
2023-01-02T03:12:36.909Z,14.07
2023-01-02T03:15:09.560Z,18.10
2023-01-02T03:17:45.443Z,18.70
2023-01-02T03:20:13.160Z,18.93
2023-01-02T03:22:40.873Z,16.73
2023-01-02T03:25:07.719Z,17.37
2023-01-02T03:27:34.989Z,17.43
2023-01-02T03:30:02.682Z,17.37
2023-01-02T03:32:30.007Z,18.57
2023-01-02T03:34:56.555Z,19.43
2023-01-02T03:37:26.992Z,18.10
2023-01-02T03:39:54.695Z,19.63
2023-01-02T03:42:28.363Z,17.13
2023-01-02T03:45:01.076Z,16.30
2023-01-02T03:47:36.682Z,18.50
2023-01-02T03:50:05.513Z,18.47
2023-01-02T03:52:32.147Z,19.37
2023-01-02T03:54:58.711Z,19.17
2023-01-02T03:57:25.205Z,19.83
2023-01-02T04:00:10.953Z,20.37
2023-01-02T04:02:39.150Z,19.63
2023-01-02T04:05:16.032Z,19.87
2023-01-02T04:07:42.650Z,19.30
2023-01-02T04:10:09.195Z,18.77
2023-01-02T04:12:36.247Z,19.93
2023-01-02T04:15:03.946Z,19.97
2023-01-02T04:17:31.056Z,19.63
2023-01-02T04:19:59.307Z,20.47
2023-01-02T04:22:27.480Z,19.17
2023-01-02T04:24:54.950Z,18.17
2023-01-02T04:27:28.823Z,19.87
2023-01-02T04:29:55.670Z,19.70
2023-01-02T04:32:54.736Z,20.07
2023-01-02T04:35:21.677Z,19.87
2023-01-02T04:37:48.243Z,19.37
2023-01-02T04:40:36.746Z,21.50
2023-01-02T04:43:04.877Z,21.60
2023-01-02T04:45:31.381Z,20.93
2023-01-02T04:47:57.921Z,21.53
2023-01-02T04:50:24.418Z,20.37
2023-01-02T04:52:50.942Z,22.83
2023-01-02T04:55:17.468Z,20.33
2023-01-02T04:57:44.055Z,21.57
2023-01-02T05:00:10.898Z,20.47
2023-01-02T05:02:37.832Z,19.50
2023-01-02T05:05:04.700Z,20.27
2023-01-02T05:07:32.729Z,19.17
2023-01-02T05:09:59.734Z,17.20
2023-01-02T05:12:26.233Z,18.87
2023-01-02T05:14:52.698Z,17.40
2023-01-02T05:17:19.216Z,16.07
2023-01-02T05:19:45.719Z,15.50
2023-01-02T05:22:30.931Z,19.10
2023-01-02T05:24:57.416Z,18.13
2023-01-02T05:27:23.997Z,19.17
2023-01-02T05:29:50.490Z,21.00
2023-01-02T05:32:17.028Z,20.63
2023-01-02T05:34:43.539Z,18.63
2023-01-02T05:37:10.153Z,17.97
2023-01-02T05:39:36.691Z,18.63
2023-01-02T05:42:03.296Z,21.17
2023-01-02T05:44:30.043Z,24.07
2023-01-02T05:46:56.615Z,23.17
2023-01-02T05:49:23.316Z,25.70
2023-01-02T05:51:49.852Z,24.10
2023-01-02T05:54:16.410Z,26.43
2023-01-02T05:56:42.944Z,33.47
2023-01-02T05:59:09.521Z,30.27
2023-01-02T06:01:36.641Z,27.73
2023-01-02T06:04:03.329Z,29.40
2023-01-02T06:06:31.005Z,27.73
2023-01-02T06:08:58.568Z,29.83
2023-01-02T06:11:25.086Z,30.53
2023-01-02T06:13:51.597Z,27.67
2023-01-02T06:16:18.207Z,27.43
2023-01-02T06:18:44.815Z,27.60
2023-01-02T06:21:12.076Z,24.23
2023-01-02T06:23:38.656Z,24.03
2023-01-02T06:26:05.997Z,25.07
2023-01-02T06:28:32.585Z,25.37
2023-01-02T06:31:00.003Z,26.40
2023-01-02T06:33:26.579Z,26.67
2023-01-02T06:36:06.267Z,26.40
2023-01-02T06:38:32.841Z,24.67
2023-01-02T06:41:00.058Z,25.07
2023-01-02T06:43:26.841Z,23.23
2023-01-02T06:45:53.573Z,22.97
2023-01-02T06:48:20.095Z,25.87
2023-01-02T06:50:46.683Z,25.57
2023-01-02T06:53:13.336Z,26.37
2023-01-02T06:55:39.892Z,26.73
2023-01-02T06:58:10.198Z,26.13
2023-01-02T07:00:38.947Z,25.43
2023-01-02T07:03:05.493Z,23.00
2023-01-02T07:05:32.021Z,23.37
2023-01-02T07:07:58.539Z,22.73
2023-01-02T07:10:25.101Z,27.57
2023-01-02T07:12:51.640Z,25.60
2023-01-02T07:15:18.330Z,25.23
2023-01-02T07:17:44.838Z,25.07
2023-01-02T07:20:11.658Z,23.93
2023-01-02T07:22:38.140Z,23.33
2023-01-02T07:25:04.952Z,25.00
2023-01-02T07:27:31.691Z,25.90
2023-01-02T07:29:58.240Z,23.80
2023-01-02T07:32:27.491Z,25.47
2023-01-02T07:34:54.376Z,23.50
2023-01-02T07:37:20.918Z,24.23
2023-01-02T07:39:47.425Z,25.80
2023-01-02T07:42:14.013Z,26.40
2023-01-02T07:44:40.560Z,24.00
2023-01-02T07:47:07.082Z,26.13
2023-01-02T07:49:33.683Z,27.30
2023-01-02T07:52:00.260Z,24.63
2023-01-02T07:54:26.792Z,25.77
2023-01-02T07:56:53.392Z,24.90
2023-01-02T07:59:19.924Z,23.77
2023-01-02T08:01:46.644Z,23.90
2023-01-02T08:04:13.341Z,27.13
2023-01-02T08:06:40.794Z,25.77
2023-01-02T08:09:07.492Z,27.10
2023-01-02T08:11:34.004Z,29.97
2023-01-02T08:14:00.584Z,34.63
2023-01-02T08:16:27.134Z,36.00
2023-01-02T08:18:55.779Z,37.47
2023-01-02T08:21:23.328Z,32.57
2023-01-02T08:23:49.902Z,34.90
2023-01-02T08:26:16.589Z,35.47
2023-01-02T08:28:43.110Z,37.17
2023-01-02T08:31:10.599Z,34.77
2023-01-02T08:33:37.156Z,38.90
2023-01-02T08:36:03.859Z,37.67
2023-01-02T08:38:30.502Z,39.73
2023-01-02T08:41:00.074Z,41.67
2023-01-02T08:43:26.955Z,42.47
2023-01-02T08:45:54.432Z,48.00
2023-01-02T08:48:21.910Z,55.33
2023-01-02T08:50:49.474Z,51.60
2023-01-02T08:53:16.019Z,51.63
2023-01-02T08:55:42.637Z,53.40
2023-01-02T08:58:09.173Z,53.37
2023-01-02T09:00:35.788Z,49.97
2023-01-02T09:03:02.586Z,50.83
2023-01-02T09:05:31.139Z,45.70
2023-01-02T09:07:58.099Z,44.30
2023-01-02T09:10:24.795Z,43.03
2023-01-02T09:12:51.397Z,44.33
2023-01-02T09:15:18.056Z,42.03
2023-01-02T09:17:44.563Z,44.77
2023-01-02T09:20:11.165Z,41.70
2023-01-02T09:22:37.808Z,43.13
2023-01-02T09:25:04.629Z,41.30
2023-01-02T09:27:31.280Z,43.53
2023-01-02T09:29:57.831Z,42.20
2023-01-02T09:32:24.399Z,39.23
2023-01-02T09:34:51.079Z,34.87
2023-01-02T09:37:17.815Z,33.20
2023-01-02T09:39:44.366Z,35.43
2023-01-02T09:42:13.399Z,32.07
2023-01-02T09:44:39.884Z,32.47
2023-01-02T09:47:06.465Z,30.43
2023-01-02T09:49:34.912Z,30.47
2023-01-02T09:52:01.509Z,27.77
2023-01-02T09:54:28.880Z,30.17
2023-01-02T09:57:00.288Z,28.13
2023-01-02T09:59:33.268Z,27.80
2023-01-02T10:01:59.770Z,29.47
2023-01-02T10:04:46.033Z,27.30
2023-01-02T10:07:13.755Z,30.77
2023-01-02T10:09:45.450Z,27.77
2023-01-02T10:12:13.709Z,26.07
2023-01-02T10:14:55.637Z,28.60
2023-01-02T10:17:22.170Z,29.30
2023-01-02T10:19:54.077Z,29.67
2023-01-02T10:22:21.256Z,25.90
2023-01-02T10:24:50.858Z,27.73
2023-01-02T10:27:19.675Z,31.43
2023-01-02T10:29:48.905Z,29.37
2023-01-02T10:32:18.564Z,28.50
2023-01-02T10:34:54.840Z,28.07
2023-01-02T10:37:21.690Z,28.33
2023-01-02T10:39:48.757Z,30.07
2023-01-02T10:42:15.504Z,28.60
2023-01-02T10:44:42.164Z,29.77
2023-01-02T10:47:12.801Z,30.60
2023-01-02T10:49:39.362Z,31.00
2023-01-02T10:52:06.824Z,30.30
2023-01-02T10:54:51.070Z,33.80
2023-01-02T10:57:27.208Z,33.37
2023-01-02T10:59:58.395Z,32.33
2023-01-02T11:02:26.613Z,34.67
2023-01-02T11:04:53.207Z,30.17
2023-01-02T11:07:26.173Z,31.57
2023-01-02T11:09:56.120Z,33.60
2023-01-02T11:12:27.097Z,33.07
2023-01-02T11:14:58.434Z,31.87
2023-01-02T11:17:24.940Z,29.87
2023-01-02T11:19:52.265Z,31.23
2023-01-02T11:22:19.382Z,29.83
2023-01-02T11:24:59.848Z,30.05
2023-01-02T11:27:56.996Z,29.67
2023-01-02T11:30:27.710Z,28.63
2023-01-02T11:33:01.327Z,30.13
2023-01-02T11:35:29.520Z,31.00
2023-01-02T11:37:56.083Z,31.00
2023-01-02T11:40:26.372Z,30.30
2023-01-02T11:43:11.729Z,27.47
2023-01-02T11:45:38.348Z,27.37
2023-01-02T11:48:05.531Z,26.57
2023-01-02T11:50:34.154Z,26.77
2023-01-02T11:53:00.695Z,27.50
2023-01-02T11:55:27.229Z,23.17
2023-01-02T11:57:54.998Z,21.30
2023-01-02T12:00:21.694Z,18.47
2023-01-02T12:02:51.982Z,17.10
2023-01-02T12:05:37.570Z,15.27
2023-01-02T12:08:06.284Z,14.57
2023-01-02T12:10:38.880Z,7.75
2023-01-02T12:13:18.677Z,5.87
2023-01-02T12:15:51.253Z,4.85
2023-01-02T12:18:30.461Z,5.70
2023-01-02T12:21:00.227Z,6.00
2023-01-02T12:23:36.859Z,5.97
2023-01-02T12:26:09.985Z,4.60
2023-01-02T12:28:55.575Z,4.60
2023-01-02T12:31:31.280Z,5.20
2023-01-02T12:34:16.390Z,4.30
2023-01-02T12:36:45.904Z,4.07
2023-01-02T12:39:31.288Z,4.75
2023-01-02T12:42:01.009Z,4.25
2023-01-02T12:44:37.617Z,4.22
2023-01-02T12:47:04.085Z,4.15
2023-01-02T12:50:09.161Z,4.43
2023-01-02T12:52:38.656Z,3.83
2023-01-02T12:55:23.406Z,2.92
2023-01-02T12:58:19.325Z,3.78
2023-01-02T13:01:21.211Z,3.28
2023-01-02T13:03:50.297Z,4.90
2023-01-02T13:06:43.341Z,5.25
2023-01-02T13:09:22.329Z,4.00
2023-01-02T13:11:56.012Z,3.95
2023-01-02T13:14:23.513Z,3.85
2023-01-02T13:16:58.705Z,4.40
2023-01-02T13:19:32.509Z,4.55
2023-01-02T13:21:59.788Z,4.45
2023-01-02T13:24:26.318Z,4.13
2023-01-02T13:26:53.390Z,4.53
2023-01-02T13:29:21.407Z,4.22
2023-01-02T13:31:49.119Z,3.88
2023-01-02T13:34:22.444Z,4.47
2023-01-02T13:36:49.574Z,4.13
2023-01-02T13:39:20.638Z,4.22
2023-01-02T13:42:09.696Z,4.28
2023-01-02T13:44:39.107Z,4.40
2023-01-02T13:47:19.273Z,4.65
2023-01-02T13:50:11.436Z,4.35
2023-01-02T13:52:38.347Z,4.65
2023-01-02T13:55:11.074Z,4.32
2023-01-02T13:57:37.641Z,4.75
2023-01-02T14:00:05.758Z,4.38
2023-01-02T14:02:32.436Z,4.90
2023-01-02T14:04:59.031Z,5.22
2023-01-02T14:07:25.573Z,4.63
2023-01-02T14:10:03.278Z,4.05
2023-01-02T14:12:29.859Z,4.75
2023-01-02T14:14:56.359Z,4.55
2023-01-02T14:17:32.484Z,4.88
2023-01-02T14:20:17.282Z,4.90
2023-01-02T14:22:54.086Z,4.88
2023-01-02T14:25:20.649Z,5.50
2023-01-02T14:27:51.061Z,4.97
2023-01-02T14:30:21.490Z,5.82
2023-01-02T14:32:48.360Z,5.65
2023-01-02T14:35:14.861Z,5.63
2023-01-02T14:37:42.584Z,6.20
2023-01-02T14:40:10.051Z,5.78
2023-01-02T14:42:55.385Z,5.47
2023-01-02T14:45:23.932Z,5.38
2023-01-02T14:47:54.828Z,5.40
2023-01-02T14:50:22.610Z,5.35
2023-01-02T14:52:50.710Z,5.18
2023-01-02T14:55:21.900Z,5.85
2023-01-02T14:57:49.280Z,5.65
2023-01-02T15:00:17.721Z,5.95
2023-01-02T15:02:45.162Z,5.38
2023-01-02T15:05:22.221Z,5.78
2023-01-02T15:07:52.399Z,5.68
2023-01-02T15:10:22.747Z,5.65
2023-01-02T15:13:04.535Z,5.68
2023-01-02T15:15:31.809Z,6.43
2023-01-02T15:18:02.719Z,8.20
2023-01-02T15:20:30.156Z,7.65
2023-01-02T15:22:56.635Z,8.80
2023-01-02T15:25:33.558Z,8.15
2023-01-02T15:28:00.125Z,8.70
2023-01-02T15:30:28.067Z,9.65
2023-01-02T15:32:54.684Z,8.85
2023-01-02T15:35:22.219Z,9.68
2023-01-02T15:37:49.105Z,9.35
2023-01-02T15:40:24.945Z,9.80
2023-01-02T15:43:11.181Z,8.55
2023-01-02T15:45:39.656Z,8.80
2023-01-02T15:48:06.539Z,8.65
2023-01-02T15:50:33.111Z,9.00
2023-01-02T15:53:01.557Z,8.93
2023-01-02T15:55:40.515Z,9.45
2023-01-02T15:58:16.173Z,9.60
2023-01-02T16:00:43.024Z,10.13
2023-01-02T16:03:10.019Z,10.55
2023-01-02T16:06:07.151Z,9.25
2023-01-02T16:08:37.884Z,10.00
2023-01-02T16:11:05.327Z,9.77
2023-01-02T16:13:50.942Z,10.55
2023-01-02T16:16:18.344Z,9.90
2023-01-02T16:18:45.839Z,8.45
2023-01-02T16:21:12.620Z,9.50
2023-01-02T16:23:39.169Z,9.15
2023-01-02T16:26:06.663Z,9.57
2023-01-02T16:28:35.778Z,10.00
2023-01-02T16:31:09.748Z,10.07
2023-01-02T16:33:36.389Z,9.85
2023-01-02T16:36:15.178Z,10.60
2023-01-02T16:38:45.683Z,10.18
2023-01-02T16:41:25.936Z,10.45
2023-01-02T16:43:52.430Z,10.77
2023-01-02T16:46:18.930Z,10.65
2023-01-02T16:48:45.599Z,11.60
2023-01-02T16:51:12.745Z,11.30
2023-01-02T16:53:39.248Z,12.05
2023-01-02T16:56:05.979Z,12.27
2023-01-02T16:58:32.558Z,13.02
2023-01-02T17:00:59.171Z,13.30
2023-01-02T17:03:26.520Z,13.90
2023-01-02T17:06:02.206Z,13.93
2023-01-02T17:08:30.277Z,13.23
2023-01-02T17:10:58.801Z,12.05
2023-01-02T17:13:25.642Z,13.32
2023-01-02T17:15:52.148Z,13.48
2023-01-02T17:18:18.720Z,11.90
2023-01-02T17:20:45.220Z,13.67
2023-01-02T17:23:11.755Z,14.38
2023-01-02T17:25:40.558Z,13.43
2023-01-02T17:28:07.171Z,12.32
2023-01-02T17:30:33.715Z,12.63
2023-01-02T17:33:04.240Z,13.30
2023-01-02T17:35:31.138Z,13.70
2023-01-02T17:37:57.649Z,13.27
2023-01-02T17:40:24.206Z,14.10
2023-01-02T17:42:50.852Z,13.47
2023-01-02T17:45:17.596Z,13.23
2023-01-02T17:48:05.535Z,13.80
2023-01-02T17:50:31.602Z,13.43
2023-01-02T17:52:58.175Z,13.93
2023-01-02T17:55:24.722Z,13.65
2023-01-02T17:57:51.290Z,13.40
2023-01-02T18:00:18.513Z,13.00
2023-01-02T18:02:45.257Z,14.00
2023-01-02T18:05:11.854Z,12.57
2023-01-02T18:07:38.431Z,13.43
2023-01-02T18:10:08.829Z,13.48
2023-01-02T18:12:37.975Z,12.18
2023-01-02T18:15:14.064Z,13.27
2023-01-02T18:17:40.595Z,12.45
2023-01-02T18:20:17.305Z,13.13
2023-01-02T18:22:48.867Z,13.40
2023-01-02T18:25:20.509Z,13.73
2023-01-02T18:27:47.526Z,14.03
2023-01-02T18:30:21.187Z,14.27
2023-01-02T18:32:47.831Z,15.00
2023-01-02T18:35:55.417Z,14.77
2023-01-02T18:38:14.420Z,13.97
2023-01-02T18:40:41.133Z,15.93
2023-01-02T18:43:26.656Z,15.03
2023-01-02T18:45:54.728Z,14.73
2023-01-02T18:48:21.711Z,13.50
2023-01-02T18:50:55.197Z,12.87
2023-01-02T18:53:23.954Z,14.47
2023-01-02T18:55:50.868Z,13.87
2023-01-02T18:58:17.408Z,13.77
2023-01-02T19:00:44.028Z,14.37
2023-01-02T19:03:11.867Z,14.17
2023-01-02T19:05:40.103Z,13.10
2023-01-02T19:08:08.045Z,13.43
2023-01-02T19:10:37.296Z,13.57
2023-01-02T19:13:08.077Z,15.13
2023-01-02T19:15:38.118Z,15.50
2023-01-02T19:18:13.771Z,15.30
2023-01-02T19:20:43.838Z,13.40
2023-01-02T19:23:16.581Z,13.37
2023-01-02T19:25:43.104Z,13.27
2023-01-02T19:28:39.335Z,13.80
2023-01-02T19:31:09.910Z,13.93
2023-01-02T19:33:38.441Z,14.17
2023-01-02T19:36:05.278Z,13.57
2023-01-02T19:38:32.000Z,12.83
2023-01-02T19:41:01.841Z,13.23
2023-01-02T19:43:28.350Z,11.93
2023-01-02T19:45:55.255Z,13.27
2023-01-02T19:48:21.788Z,11.47
2023-01-02T19:50:48.490Z,12.27
2023-01-02T19:53:15.034Z,12.47
2023-01-02T19:55:41.561Z,11.83
2023-01-02T19:58:08.416Z,13.83
2023-01-02T20:00:34.945Z,15.60
2023-01-02T20:03:01.736Z,14.70
2023-01-02T20:05:28.910Z,13.43
2023-01-02T20:07:56.832Z,13.93
2023-01-02T20:10:23.464Z,13.33
2023-01-02T20:12:50.060Z,14.00
2023-01-02T20:15:17.664Z,13.07
2023-01-02T20:17:44.384Z,13.87
2023-01-02T20:20:12.174Z,12.50
2023-01-02T20:22:38.723Z,11.67
2023-01-02T20:25:05.505Z,13.53
2023-01-02T20:27:32.018Z,13.27
2023-01-02T20:29:58.672Z,13.73
2023-01-02T20:32:25.264Z,13.93
2023-01-02T20:34:51.849Z,15.37
2023-01-02T20:37:21.436Z,14.53
2023-01-02T20:39:51.621Z,15.63
2023-01-02T20:42:18.285Z,14.50
2023-01-02T20:44:44.872Z,15.30
2023-01-02T20:47:12.163Z,14.80
2023-01-02T20:49:39.255Z,15.20
2023-01-02T20:52:05.986Z,14.50
2023-01-02T20:54:32.569Z,14.23
2023-01-02T20:56:59.084Z,13.43
2023-01-02T20:59:25.671Z,13.63
2023-01-02T21:01:52.284Z,14.00
2023-01-02T21:04:22.746Z,13.00
2023-01-02T21:06:56.049Z,12.53
2023-01-02T21:09:22.706Z,13.30
2023-01-02T21:11:49.371Z,13.00
2023-01-02T21:14:15.933Z,13.93
2023-01-02T21:16:42.582Z,13.37
2023-01-02T21:19:09.175Z,13.80
2023-01-02T21:21:35.721Z,12.77
2023-01-02T21:24:02.244Z,13.43
2023-01-02T21:26:28.820Z,12.50
2023-01-02T21:28:55.437Z,13.17
2023-01-02T21:31:22.143Z,13.00
2023-01-02T21:33:48.813Z,13.07
2023-01-02T21:36:15.915Z,14.60
2023-01-02T21:38:42.674Z,12.40
2023-01-02T21:41:27.777Z,14.23
2023-01-02T21:43:54.400Z,13.37
2023-01-02T21:46:21.014Z,13.37
2023-01-02T21:48:47.728Z,12.37
2023-01-02T21:51:15.541Z,11.97
2023-01-02T21:53:42.032Z,11.60
2023-01-02T21:56:08.587Z,12.47
2023-01-02T21:58:35.140Z,10.90
2023-01-02T22:01:01.802Z,12.60
2023-01-02T22:03:28.508Z,12.57
2023-01-02T22:05:55.025Z,12.60
2023-01-02T22:08:21.563Z,13.33
2023-01-02T22:10:49.013Z,13.17
2023-01-02T22:13:15.884Z,12.27
2023-01-02T22:15:42.423Z,12.40
2023-01-02T22:18:09.043Z,13.20
2023-01-02T22:20:35.804Z,14.57
2023-01-02T22:23:02.314Z,14.67
2023-01-02T22:25:28.857Z,14.83
2023-01-02T22:27:55.359Z,15.40
2023-01-02T22:30:29.271Z,15.17
2023-01-02T22:32:59.809Z,14.03
2023-01-02T22:35:26.395Z,13.73
2023-01-02T22:37:52.917Z,13.17
2023-01-02T22:40:20.383Z,12.50
2023-01-02T22:43:01.594Z,11.07
2023-01-02T22:45:29.336Z,12.17
2023-01-02T22:47:59.537Z,10.90
2023-01-02T22:50:29.698Z,12.70
2023-01-02T22:52:56.305Z,10.87
2023-01-02T22:55:23.714Z,11.80
2023-01-02T22:57:51.842Z,10.30
2023-01-02T23:00:19.753Z,11.53
2023-01-02T23:02:46.563Z,12.37
2023-01-02T23:05:16.976Z,10.57
2023-01-02T23:07:43.747Z,11.13
2023-01-02T23:10:10.303Z,11.20
2023-01-02T23:12:36.881Z,10.73
2023-01-02T23:15:03.445Z,11.57
2023-01-02T23:17:48.604Z,11.47
2023-01-02T23:20:15.211Z,11.67
2023-01-02T23:22:41.703Z,11.23
2023-01-02T23:25:08.457Z,11.27
2023-01-02T23:27:35.160Z,11.07
2023-01-02T23:30:01.823Z,11.23
2023-01-02T23:32:28.342Z,12.60
2023-01-02T23:34:54.835Z,10.93
2023-01-02T23:37:21.379Z,11.93
2023-01-02T23:39:47.923Z,11.20
2023-01-02T23:42:14.407Z,11.30
2023-01-02T23:44:41.741Z,12.43
2023-01-02T23:47:12.400Z,12.77
2023-01-02T23:49:41.104Z,12.00
2023-01-02T23:52:07.655Z,12.70
2023-01-02T23:54:34.220Z,12.97
2023-01-02T23:57:00.807Z,13.17
2023-01-02T23:59:27.510Z,14.03
